sensor_id;sensor_type;location;lat;lon;timestamp;pressure;altitude;pressure_sealevel;temperature;humidity
56006;BME280;41888;44.696;10.522;2023-05-22T00:01:37;100303.22;;;16.35;100.00
56006;BME280;41888;44.696;10.522;2023-05-22T00:04:04;100298.34;;;16.48;100.00
56006;BME280;41888;44.696;10.522;2023-05-22T00:06:30;100296.19;;;16.51;100.00
56006;BME280;41888;44.696;10.522;2023-05-22T00:08:58;100297.75;;;16.46;100.00
56006;BME280;41888;44.696;10.522;2023-05-22T00:11:25;100301.03;;;16.48;100.00
56006;BME280;41888;44.696;10.522;2023-05-22T00:13:51;100294.50;;;16.44;100.00
56006;BME280;41888;44.696;10.522;2023-05-22T00:16:18;100296.84;;;16.58;100.00
56006;BME280;41888;44.696;10.522;2023-05-22T00:18:44;100292.47;;;16.52;100.00
56006;BME280;41888;44.696;10.522;2023-05-22T00:21:10;100297.84;;;16.52;100.00
56006;BME280;41888;44.696;10.522;2023-05-22T00:23:36;100300.28;;;16.53;100.00
56006;BME280;41888;44.696;10.522;2023-05-22T00:26:03;100298.00;;;16.45;100.00
56006;BME280;41888;44.696;10.522;2023-05-22T00:28:29;100296.38;;;16.44;100.00
56006;BME280;41888;44.696;10.522;2023-05-22T00:30:55;100293.94;;;16.42;100.00
56006;BME280;41888;44.696;10.522;2023-05-22T00:33:22;100286.13;;;16.41;100.00
56006;BME280;41888;44.696;10.522;2023-05-22T00:35:48;100288.88;;;16.46;100.00
56006;BME280;41888;44.696;10.522;2023-05-22T00:38:28;100283.19;;;16.42;100.00
56006;BME280;41888;44.696;10.522;2023-05-22T00:40:55;100277.75;;;16.37;100.00
56006;BME280;41888;44.696;10.522;2023-05-22T00:43:21;100280.44;;;16.21;100.00
56006;BME280;41888;44.696;10.522;2023-05-22T00:45:47;100283.06;;;16.16;100.00
56006;BME280;41888;44.696;10.522;2023-05-22T00:48:15;100279.47;;;16.10;100.00
56006;BME280;41888;44.696;10.522;2023-05-22T00:50:41;100284.19;;;16.03;100.00
56006;BME280;41888;44.696;10.522;2023-05-22T00:53:07;100285.28;;;16.02;100.00
56006;BME280;41888;44.696;10.522;2023-05-22T00:55:34;100277.44;;;16.00;100.00
56006;BME280;41888;44.696;10.522;2023-05-22T00:58:02;100277.28;;;15.90;100.00
56006;BME280;41888;44.696;10.522;2023-05-22T01:00:36;100274.66;;;15.79;100.00
56006;BME280;41888;44.696;10.522;2023-05-22T01:03:04;100271.66;;;15.75;100.00
56006;BME280;41888;44.696;10.522;2023-05-22T01:05:33;100275.63;;;15.73;100.00
56006;BME280;41888;44.696;10.522;2023-05-22T01:08:03;100281.59;;;15.75;100.00
56006;BME280;41888;44.696;10.522;2023-05-22T01:10:30;100281.97;;;15.67;100.00
56006;BME280;41888;44.696;10.522;2023-05-22T01:13:28;100287.09;;;15.68;100.00
56006;BME280;41888;44.696;10.522;2023-05-22T01:16:23;100292.22;;;15.86;100.00
56006;BME280;41888;44.696;10.522;2023-05-22T01:19:05;100280.13;;;15.84;100.00
56006;BME280;41888;44.696;10.522;2023-05-22T01:33:03;100290.59;;;15.69;100.00
56006;BME280;41888;44.696;10.522;2023-05-22T01:35:33;100284.50;;;15.73;100.00
56006;BME280;41888;44.696;10.522;2023-05-22T01:38:02;100281.88;;;15.61;100.00
56006;BME280;41888;44.696;10.522;2023-05-22T01:40:29;100292.84;;;15.60;100.00
56006;BME280;41888;44.696;10.522;2023-05-22T01:42:56;100288.78;;;15.46;100.00
56006;BME280;41888;44.696;10.522;2023-05-22T01:45:22;100287.06;;;15.51;100.00
56006;BME280;41888;44.696;10.522;2023-05-22T01:47:48;100289.75;;;15.40;100.00
56006;BME280;41888;44.696;10.522;2023-05-22T01:50:15;100284.38;;;15.40;100.00
56006;BME280;41888;44.696;10.522;2023-05-22T01:55:39;100283.72;;;15.33;100.00
56006;BME280;41888;44.696;10.522;2023-05-22T01:58:51;100280.25;;;15.32;100.00
56006;BME280;41888;44.696;10.522;2023-05-22T02:01:10;100279.59;;;15.13;100.00
56006;BME280;41888;44.696;10.522;2023-05-22T02:03:38;100278.78;;;15.13;100.00
56006;BME280;41888;44.696;10.522;2023-05-22T02:06:06;100284.03;;;15.08;100.00
56006;BME280;41888;44.696;10.522;2023-05-22T02:08:38;100287.66;;;15.02;100.00
56006;BME280;41888;44.696;10.522;2023-05-22T02:11:06;100288.84;;;15.06;100.00
56006;BME280;41888;44.696;10.522;2023-05-22T02:13:35;100270.19;;;15.11;100.00
56006;BME280;41888;44.696;10.522;2023-05-22T02:16:02;100273.91;;;15.10;100.00
56006;BME280;41888;44.696;10.522;2023-05-22T02:18:29;100272.97;;;15.04;100.00
56006;BME280;41888;44.696;10.522;2023-05-22T02:20:56;100267.97;;;15.08;100.00
56006;BME280;41888;44.696;10.522;2023-05-22T02:23:23;100269.97;;;15.01;100.00
56006;BME280;41888;44.696;10.522;2023-05-22T02:25:50;100269.28;;;14.94;100.00
56006;BME280;41888;44.696;10.522;2023-05-22T02:28:16;100265.88;;;14.98;100.00
56006;BME280;41888;44.696;10.522;2023-05-22T02:30:42;100264.13;;;15.04;100.00
56006;BME280;41888;44.696;10.522;2023-05-22T02:33:08;100262.50;;;15.03;100.00
56006;BME280;41888;44.696;10.522;2023-05-22T02:35:36;100268.56;;;14.98;100.00
56006;BME280;41888;44.696;10.522;2023-05-22T02:38:02;100272.16;;;15.04;100.00
56006;BME280;41888;44.696;10.522;2023-05-22T02:40:28;100267.84;;;15.03;100.00
56006;BME280;41888;44.696;10.522;2023-05-22T02:42:54;100281.97;;;14.98;100.00
56006;BME280;41888;44.696;10.522;2023-05-22T02:45:21;100288.38;;;14.97;100.00
56006;BME280;41888;44.696;10.522;2023-05-22T02:47:47;100281.88;;;14.93;100.00
56006;BME280;41888;44.696;10.522;2023-05-22T02:50:13;100290.34;;;15.02;100.00
56006;BME280;41888;44.696;10.522;2023-05-22T02:52:39;100290.22;;;14.97;100.00
56006;BME280;41888;44.696;10.522;2023-05-22T02:55:06;100284.09;;;14.96;100.00
56006;BME280;41888;44.696;10.522;2023-05-22T02:57:33;100284.88;;;14.97;100.00
56006;BME280;41888;44.696;10.522;2023-05-22T02:59:59;100287.81;;;14.95;100.00
56006;BME280;41888;44.696;10.522;2023-05-22T03:02:26;100287.44;;;14.92;100.00
56006;BME280;41888;44.696;10.522;2023-05-22T03:04:57;100294.00;;;14.96;100.00
56006;BME280;41888;44.696;10.522;2023-05-22T03:07:26;100295.13;;;15.00;100.00
56006;BME280;41888;44.696;10.522;2023-05-22T03:09:54;100299.91;;;14.98;100.00
56006;BME280;41888;44.696;10.522;2023-05-22T03:12:20;100295.25;;;14.93;100.00
56006;BME280;41888;44.696;10.522;2023-05-22T03:14:47;100295.38;;;14.98;100.00
56006;BME280;41888;44.696;10.522;2023-05-22T03:17:13;100292.91;;;14.97;100.00
56006;BME280;41888;44.696;10.522;2023-05-22T03:19:39;100294.00;;;14.96;100.00
56006;BME280;41888;44.696;10.522;2023-05-22T03:22:06;100293.41;;;14.94;100.00
56006;BME280;41888;44.696;10.522;2023-05-22T03:24:32;100294.91;;;15.01;100.00
56006;BME280;41888;44.696;10.522;2023-05-22T03:26:59;100301.22;;;14.95;100.00
56006;BME280;41888;44.696;10.522;2023-05-22T03:29:25;100298.16;;;14.92;100.00
56006;BME280;41888;44.696;10.522;2023-05-22T03:31:53;100298.84;;;14.99;100.00
56006;BME280;41888;44.696;10.522;2023-05-22T03:34:19;100297.59;;;15.01;100.00
56006;BME280;41888;44.696;10.522;2023-05-22T03:36:47;100297.22;;;14.98;100.00
56006;BME280;41888;44.696;10.522;2023-05-22T03:39:13;100295.47;;;14.92;100.00
56006;BME280;41888;44.696;10.522;2023-05-22T03:41:39;100294.09;;;14.89;100.00
56006;BME280;41888;44.696;10.522;2023-05-22T03:44:06;100306.19;;;14.92;100.00
56006;BME280;41888;44.696;10.522;2023-05-22T03:46:32;100303.28;;;14.93;100.00
56006;BME280;41888;44.696;10.522;2023-05-22T03:48:58;100306.56;;;14.95;100.00
56006;BME280;41888;44.696;10.522;2023-05-22T03:51:24;100302.34;;;14.99;100.00
56006;BME280;41888;44.696;10.522;2023-05-22T03:53:51;100301.44;;;14.94;100.00
56006;BME280;41888;44.696;10.522;2023-05-22T03:56:17;100303.88;;;14.95;100.00
56006;BME280;41888;44.696;10.522;2023-05-22T03:58:43;100301.53;;;14.99;100.00
56006;BME280;41888;44.696;10.522;2023-05-22T04:01:09;100301.44;;;14.94;100.00
56006;BME280;41888;44.696;10.522;2023-05-22T04:03:36;100307.59;;;14.94;100.00
56006;BME280;41888;44.696;10.522;2023-05-22T04:06:03;100304.09;;;14.94;100.00
56006;BME280;41888;44.696;10.522;2023-05-22T04:08:30;100300.38;;;14.95;100.00
56006;BME280;41888;44.696;10.522;2023-05-22T04:10:56;100309.25;;;14.95;100.00
56006;BME280;41888;44.696;10.522;2023-05-22T04:13:23;100308.75;;;14.98;100.00
56006;BME280;41888;44.696;10.522;2023-05-22T04:15:49;100307.47;;;15.01;100.00
56006;BME280;41888;44.696;10.522;2023-05-22T04:18:17;100319.34;;;15.05;100.00
56006;BME280;41888;44.696;10.522;2023-05-22T04:20:43;100323.38;;;15.19;100.00
56006;BME280;41888;44.696;10.522;2023-05-22T04:23:09;100320.72;;;15.19;100.00
56006;BME280;41888;44.696;10.522;2023-05-22T04:25:36;100318.13;;;15.24;100.00
56006;BME280;41888;44.696;10.522;2023-05-22T04:28:02;100324.78;;;15.21;100.00
56006;BME280;41888;44.696;10.522;2023-05-22T04:30:30;100318.13;;;15.24;100.00
56006;BME280;41888;44.696;10.522;2023-05-22T04:32:59;100327.44;;;15.33;100.00
56006;BME280;41888;44.696;10.522;2023-05-22T04:35:25;100323.69;;;15.34;100.00
56006;BME280;41888;44.696;10.522;2023-05-22T04:37:55;100333.91;;;15.49;100.00
56006;BME280;41888;44.696;10.522;2023-05-22T04:40:21;100330.72;;;15.63;100.00
56006;BME280;41888;44.696;10.522;2023-05-22T04:42:47;100331.47;;;15.76;100.00
56006;BME280;41888;44.696;10.522;2023-05-22T04:45:15;100338.56;;;15.82;100.00
56006;BME280;41888;44.696;10.522;2023-05-22T04:47:41;100339.63;;;15.97;100.00
56006;BME280;41888;44.696;10.522;2023-05-22T04:50:07;100339.56;;;16.09;100.00
56006;BME280;41888;44.696;10.522;2023-05-22T04:52:34;100337.94;;;16.08;100.00
56006;BME280;41888;44.696;10.522;2023-05-22T04:55:01;100333.81;;;16.17;100.00
56006;BME280;41888;44.696;10.522;2023-05-22T04:57:27;100340.16;;;16.28;100.00
56006;BME280;41888;44.696;10.522;2023-05-22T04:59:53;100346.00;;;16.41;100.00
56006;BME280;41888;44.696;10.522;2023-05-22T05:02:20;100346.47;;;16.55;100.00
56006;BME280;41888;44.696;10.522;2023-05-22T05:04:46;100356.19;;;16.73;100.00
56006;BME280;41888;44.696;10.522;2023-05-22T05:07:13;100352.72;;;16.94;100.00
56006;BME280;41888;44.696;10.522;2023-05-22T05:09:42;100355.56;;;17.26;100.00
56006;BME280;41888;44.696;10.522;2023-05-22T05:12:08;100350.56;;;17.35;100.00
56006;BME280;41888;44.696;10.522;2023-05-22T05:14:35;100348.94;;;18.09;100.00
56006;BME280;41888;44.696;10.522;2023-05-22T05:17:01;100349.31;;;18.91;100.00
56006;BME280;41888;44.696;10.522;2023-05-22T05:19:27;100354.34;;;19.30;100.00
56006;BME280;41888;44.696;10.522;2023-05-22T05:21:53;100360.50;;;19.98;100.00
56006;BME280;41888;44.696;10.522;2023-05-22T05:24:19;100363.53;;;20.62;100.00
56006;BME280;41888;44.696;10.522;2023-05-22T05:26:45;100366.41;;;21.01;100.00
56006;BME280;41888;44.696;10.522;2023-05-22T05:29:12;100363.16;;;21.09;100.00
56006;BME280;41888;44.696;10.522;2023-05-22T05:31:39;100365.72;;;21.44;100.00
56006;BME280;41888;44.696;10.522;2023-05-22T05:34:05;100368.88;;;21.67;100.00
56006;BME280;41888;44.696;10.522;2023-05-22T05:36:31;100367.97;;;22.25;100.00
56006;BME280;41888;44.696;10.522;2023-05-22T05:38:57;100367.81;;;22.74;100.00
56006;BME280;41888;44.696;10.522;2023-05-22T05:41:24;100363.03;;;22.32;100.00
56006;BME280;41888;44.696;10.522;2023-05-22T05:43:51;100377.78;;;23.08;100.00
56006;BME280;41888;44.696;10.522;2023-05-22T05:46:18;100374.59;;;22.77;100.00
56006;BME280;41888;44.696;10.522;2023-05-22T05:48:44;100368.34;;;20.80;100.00
56006;BME280;41888;44.696;10.522;2023-05-22T05:51:10;100362.69;;;20.67;100.00
56006;BME280;41888;44.696;10.522;2023-05-22T05:53:37;100373.81;;;22.04;100.00
56006;BME280;41888;44.696;10.522;2023-05-22T05:56:06;100370.81;;;23.26;100.00
56006;BME280;41888;44.696;10.522;2023-05-22T05:58:32;100376.50;;;23.48;100.00
56006;BME280;41888;44.696;10.522;2023-05-22T06:00:58;100378.41;;;23.24;100.00
56006;BME280;41888;44.696;10.522;2023-05-22T06:03:25;100377.09;;;22.97;100.00
56006;BME280;41888;44.696;10.522;2023-05-22T06:05:51;100387.50;;;22.22;100.00
56006;BME280;41888;44.696;10.522;2023-05-22T06:08:18;100390.94;;;21.89;100.00
56006;BME280;41888;44.696;10.522;2023-05-22T06:10:46;100385.56;;;21.25;100.00
56006;BME280;41888;44.696;10.522;2023-05-22T06:13:13;100381.88;;;21.65;100.00
56006;BME280;41888;44.696;10.522;2023-05-22T06:15:39;100384.41;;;21.46;100.00
56006;BME280;41888;44.696;10.522;2023-05-22T06:18:06;100391.66;;;21.56;100.00
56006;BME280;41888;44.696;10.522;2023-05-22T06:20:32;100394.47;;;21.35;100.00
56006;BME280;41888;44.696;10.522;2023-05-22T06:22:58;100398.28;;;21.24;100.00
56006;BME280;41888;44.696;10.522;2023-05-22T06:25:24;100404.47;;;21.35;100.00
56006;BME280;41888;44.696;10.522;2023-05-22T06:27:54;100399.22;;;21.59;100.00
56006;BME280;41888;44.696;10.522;2023-05-22T06:30:21;100404.00;;;21.82;100.00
56006;BME280;41888;44.696;10.522;2023-05-22T06:32:47;100401.31;;;21.77;100.00
56006;BME280;41888;44.696;10.522;2023-05-22T06:35:14;100400.19;;;21.83;100.00
56006;BME280;41888;44.696;10.522;2023-05-22T06:37:40;100392.63;;;21.80;100.00
56006;BME280;41888;44.696;10.522;2023-05-22T06:40:08;100390.78;;;21.70;100.00
56006;BME280;41888;44.696;10.522;2023-05-22T06:42:35;100400.03;;;22.13;100.00
56006;BME280;41888;44.696;10.522;2023-05-22T06:45:01;100394.72;;;21.93;100.00
56006;BME280;41888;44.696;10.522;2023-05-22T06:47:27;100397.09;;;22.10;100.00
56006;BME280;41888;44.696;10.522;2023-05-22T06:49:54;100392.03;;;22.32;100.00
56006;BME280;41888;44.696;10.522;2023-05-22T06:52:20;100402.13;;;22.21;100.00
56006;BME280;41888;44.696;10.522;2023-05-22T06:54:46;100393.81;;;22.13;100.00
56006;BME280;41888;44.696;10.522;2023-05-22T06:57:12;100396.72;;;22.21;100.00
56006;BME280;41888;44.696;10.522;2023-05-22T06:59:38;100392.09;;;22.22;100.00
56006;BME280;41888;44.696;10.522;2023-05-22T07:02:05;100400.59;;;22.44;100.00
56006;BME280;41888;44.696;10.522;2023-05-22T07:04:31;100399.59;;;22.35;100.00
56006;BME280;41888;44.696;10.522;2023-05-22T07:06:57;100405.13;;;22.54;100.00
56006;BME280;41888;44.696;10.522;2023-05-22T07:09:23;100391.81;;;22.23;100.00
56006;BME280;41888;44.696;10.522;2023-05-22T07:11:50;100401.47;;;22.40;100.00
56006;BME280;41888;44.696;10.522;2023-05-22T07:14:16;100395.41;;;22.82;100.00
56006;BME280;41888;44.696;10.522;2023-05-22T07:16:43;100394.97;;;22.98;100.00
56006;BME280;41888;44.696;10.522;2023-05-22T07:19:10;100393.41;;;22.92;100.00
56006;BME280;41888;44.696;10.522;2023-05-22T07:21:37;100399.44;;;22.84;100.00
56006;BME280;41888;44.696;10.522;2023-05-22T07:24:03;100395.47;;;22.77;100.00
56006;BME280;41888;44.696;10.522;2023-05-22T07:26:34;100392.00;;;23.00;100.00
56006;BME280;41888;44.696;10.522;2023-05-22T07:29:01;100392.91;;;23.14;100.00
56006;BME280;41888;44.696;10.522;2023-05-22T07:31:27;100403.88;;;23.04;100.00
56006;BME280;41888;44.696;10.522;2023-05-22T07:33:53;100400.56;;;22.83;100.00
56006;BME280;41888;44.696;10.522;2023-05-22T07:36:20;100397.56;;;22.85;100.00
56006;BME280;41888;44.696;10.522;2023-05-22T07:38:46;100395.81;;;22.65;100.00
56006;BME280;41888;44.696;10.522;2023-05-22T07:41:12;100394.38;;;22.78;100.00
56006;BME280;41888;44.696;10.522;2023-05-22T07:43:39;100398.16;;;23.05;100.00
56006;BME280;41888;44.696;10.522;2023-05-22T07:46:05;100390.28;;;22.80;100.00
56006;BME280;41888;44.696;10.522;2023-05-22T07:48:31;100388.03;;;22.87;100.00
56006;BME280;41888;44.696;10.522;2023-05-22T07:50:57;100382.13;;;22.80;100.00
56006;BME280;41888;44.696;10.522;2023-05-22T07:53:24;100388.19;;;22.72;100.00
56006;BME280;41888;44.696;10.522;2023-05-22T07:55:50;100380.66;;;22.93;100.00
56006;BME280;41888;44.696;10.522;2023-05-22T07:58:16;100387.59;;;23.28;100.00
56006;BME280;41888;44.696;10.522;2023-05-22T08:00:42;100384.28;;;23.54;100.00
56006;BME280;41888;44.696;10.522;2023-05-22T08:03:08;100388.66;;;23.32;100.00
56006;BME280;41888;44.696;10.522;2023-05-22T08:05:35;100383.09;;;23.42;100.00
56006;BME280;41888;44.696;10.522;2023-05-22T08:08:01;100384.31;;;23.31;100.00
56006;BME280;41888;44.696;10.522;2023-05-22T08:10:28;100383.56;;;23.49;100.00
56006;BME280;41888;44.696;10.522;2023-05-22T08:12:54;100373.91;;;23.14;100.00
56006;BME280;41888;44.696;10.522;2023-05-22T08:15:23;100369.69;;;23.27;100.00
56006;BME280;41888;44.696;10.522;2023-05-22T08:17:49;100366.28;;;23.40;100.00
56006;BME280;41888;44.696;10.522;2023-05-22T08:20:15;100366.41;;;23.72;100.00
56006;BME280;41888;44.696;10.522;2023-05-22T08:22:41;100362.44;;;23.46;100.00
56006;BME280;41888;44.696;10.522;2023-05-22T08:25:08;100368.31;;;23.29;100.00
56006;BME280;41888;44.696;10.522;2023-05-22T08:27:34;100366.84;;;23.61;100.00
56006;BME280;41888;44.696;10.522;2023-05-22T08:30:01;100361.84;;;23.86;100.00
56006;BME280;41888;44.696;10.522;2023-05-22T08:32:29;100363.97;;;23.71;100.00
56006;BME280;41888;44.696;10.522;2023-05-22T08:34:55;100358.50;;;23.94;100.00
56006;BME280;41888;44.696;10.522;2023-05-22T08:37:21;100366.81;;;24.17;100.00
56006;BME280;41888;44.696;10.522;2023-05-22T08:39:48;100361.38;;;24.17;96.63
56006;BME280;41888;44.696;10.522;2023-05-22T08:42:14;100365.09;;;24.26;94.31
56006;BME280;41888;44.696;10.522;2023-05-22T08:44:40;100362.00;;;23.95;95.73
56006;BME280;41888;44.696;10.522;2023-05-22T08:47:06;100360.25;;;24.04;92.15
56006;BME280;41888;44.696;10.522;2023-05-22T08:49:38;100364.19;;;24.12;96.99
56006;BME280;41888;44.696;10.522;2023-05-22T08:52:18;100365.38;;;24.06;93.10
56006;BME280;41888;44.696;10.522;2023-05-22T08:54:53;100359.34;;;23.90;93.74
56006;BME280;41888;44.696;10.522;2023-05-22T08:57:20;100352.44;;;23.97;91.84
56006;BME280;41888;44.696;10.522;2023-05-22T08:59:47;100354.88;;;23.38;90.26
56006;BME280;41888;44.696;10.522;2023-05-22T09:02:16;100357.66;;;23.56;92.27
56006;BME280;41888;44.696;10.522;2023-05-22T09:04:42;100357.16;;;23.73;91.97
56006;BME280;41888;44.696;10.522;2023-05-22T09:07:09;100365.69;;;24.04;91.05
56006;BME280;41888;44.696;10.522;2023-05-22T09:09:38;100361.53;;;24.07;92.95
56006;BME280;41888;44.696;10.522;2023-05-22T09:12:09;100359.41;;;24.22;90.85
56006;BME280;41888;44.696;10.522;2023-05-22T09:14:39;100358.06;;;24.38;91.20
56006;BME280;41888;44.696;10.522;2023-05-22T09:17:06;100355.59;;;24.69;89.77
56006;BME280;41888;44.696;10.522;2023-05-22T09:19:33;100355.94;;;24.81;85.54
56006;BME280;41888;44.696;10.522;2023-05-22T09:22:03;100358.84;;;24.71;83.98
56006;BME280;41888;44.696;10.522;2023-05-22T09:24:29;100359.06;;;24.75;85.22
56006;BME280;41888;44.696;10.522;2023-05-22T09:26:56;100357.66;;;24.77;84.75
56006;BME280;41888;44.696;10.522;2023-05-22T09:29:22;100353.72;;;24.83;82.17
56006;BME280;41888;44.696;10.522;2023-05-22T09:31:48;100360.00;;;24.84;82.45
56006;BME280;41888;44.696;10.522;2023-05-22T09:34:14;100353.56;;;24.94;83.85
56006;BME280;41888;44.696;10.522;2023-05-22T09:36:42;100356.38;;;24.89;82.10
56006;BME280;41888;44.696;10.522;2023-05-22T09:39:08;100351.06;;;24.65;82.27
56006;BME280;41888;44.696;10.522;2023-05-22T09:41:38;100351.59;;;24.80;84.35
56006;BME280;41888;44.696;10.522;2023-05-22T09:44:14;100349.53;;;25.05;82.49
56006;BME280;41888;44.696;10.522;2023-05-22T09:46:43;100347.81;;;25.09;84.44
56006;BME280;41888;44.696;10.522;2023-05-22T09:49:09;100349.22;;;24.93;80.52
56006;BME280;41888;44.696;10.522;2023-05-22T09:51:39;100346.69;;;24.82;83.78
56006;BME280;41888;44.696;10.522;2023-05-22T09:54:07;100344.31;;;24.95;85.04
56006;BME280;41888;44.696;10.522;2023-05-22T09:56:36;100352.16;;;25.10;82.28
56006;BME280;41888;44.696;10.522;2023-05-22T09:59:04;100348.53;;;25.01;78.12
56006;BME280;41888;44.696;10.522;2023-05-22T10:01:35;100344.00;;;25.10;83.37
56006;BME280;41888;44.696;10.522;2023-05-22T10:04:02;100343.00;;;25.06;80.01
56006;BME280;41888;44.696;10.522;2023-05-22T10:06:30;100348.13;;;25.07;80.29
56006;BME280;41888;44.696;10.522;2023-05-22T10:09:02;100345.69;;;25.33;80.53
56006;BME280;41888;44.696;10.522;2023-05-22T10:11:30;100333.59;;;25.12;80.81
56006;BME280;41888;44.696;10.522;2023-05-22T10:13:58;100332.78;;;25.25;81.08
56006;BME280;41888;44.696;10.522;2023-05-22T10:16:26;100332.78;;;25.25;85.17
56006;BME280;41888;44.696;10.522;2023-05-22T10:18:53;100334.09;;;25.28;82.47
56006;BME280;41888;44.696;10.522;2023-05-22T10:21:21;100326.94;;;25.18;81.78
56006;BME280;41888;44.696;10.522;2023-05-22T10:23:48;100336.59;;;25.51;83.55
56006;BME280;41888;44.696;10.522;2023-05-22T10:26:17;100337.97;;;25.49;81.04
56006;BME280;41888;44.696;10.522;2023-05-22T10:28:56;100326.03;;;25.22;82.15
56006;BME280;41888;44.696;10.522;2023-05-22T10:32:32;100324.53;;;25.16;82.74
56006;BME280;41888;44.696;10.522;2023-05-22T10:34:38;100329.63;;;25.45;81.49
56006;BME280;41888;44.696;10.522;2023-05-22T10:37:31;100331.75;;;25.48;80.41
56006;BME280;41888;44.696;10.522;2023-05-22T10:40:07;100335.16;;;25.68;78.81
56006;BME280;41888;44.696;10.522;2023-05-22T10:42:36;100329.94;;;25.44;80.12
56006;BME280;41888;44.696;10.522;2023-05-22T10:45:05;100326.16;;;25.04;79.76
56006;BME280;41888;44.696;10.522;2023-05-22T10:47:35;100326.66;;;25.19;80.23
56006;BME280;41888;44.696;10.522;2023-05-22T10:50:07;100325.31;;;25.17;80.40
56006;BME280;41888;44.696;10.522;2023-05-22T10:52:35;100327.00;;;25.40;78.09
56006;BME280;41888;44.696;10.522;2023-05-22T10:55:09;100321.72;;;25.71;75.63
56006;BME280;41888;44.696;10.522;2023-05-22T10:57:36;100315.91;;;25.86;76.50
56006;BME280;41888;44.696;10.522;2023-05-22T11:00:07;100307.69;;;25.78;80.86
56006;BME280;41888;44.696;10.522;2023-05-22T11:02:42;100310.16;;;25.38;78.58
56006;BME280;41888;44.696;10.522;2023-05-22T11:07:44;100307.56;;;25.33;80.58
56006;BME280;41888;44.696;10.522;2023-05-22T11:10:10;100308.16;;;25.57;78.54
56006;BME280;41888;44.696;10.522;2023-05-22T11:12:36;100298.81;;;25.72;77.14
56006;BME280;41888;44.696;10.522;2023-05-22T11:15:05;100300.59;;;25.77;76.10
56006;BME280;41888;44.696;10.522;2023-05-22T11:17:38;100297.63;;;25.51;75.68
56006;BME280;41888;44.696;10.522;2023-05-22T11:20:21;100296.94;;;25.81;75.35
56006;BME280;41888;44.696;10.522;2023-05-22T11:23:19;100291.94;;;26.19;73.53
56006;BME280;41888;44.696;10.522;2023-05-22T11:25:48;100292.44;;;25.99;72.63
56006;BME280;41888;44.696;10.522;2023-05-22T11:28:14;100290.63;;;25.22;73.08
56006;BME280;41888;44.696;10.522;2023-05-22T11:30:41;100288.81;;;25.18;74.69
56006;BME280;41888;44.696;10.522;2023-05-22T11:33:07;100287.19;;;24.76;74.25
56006;BME280;41888;44.696;10.522;2023-05-22T11:35:35;100282.16;;;24.56;74.98
56006;BME280;41888;44.696;10.522;2023-05-22T11:38:04;100292.06;;;25.20;74.03
56006;BME280;41888;44.696;10.522;2023-05-22T11:40:31;100289.63;;;25.32;72.62
56006;BME280;41888;44.696;10.522;2023-05-22T11:42:57;100285.16;;;25.36;74.18
56006;BME280;41888;44.696;10.522;2023-05-22T11:45:24;100294.69;;;25.75;72.38
56006;BME280;41888;44.696;10.522;2023-05-22T11:47:50;100287.41;;;26.15;72.76
56006;BME280;41888;44.696;10.522;2023-05-22T11:50:17;100281.81;;;26.20;68.71
56006;BME280;41888;44.696;10.522;2023-05-22T11:52:43;100285.06;;;25.77;67.14
56006;BME280;41888;44.696;10.522;2023-05-22T11:55:10;100280.47;;;25.50;67.86
56006;BME280;41888;44.696;10.522;2023-05-22T11:57:37;100279.06;;;25.67;69.33
56006;BME280;41888;44.696;10.522;2023-05-22T12:00:06;100276.22;;;25.94;67.23
56006;BME280;41888;44.696;10.522;2023-05-22T12:02:33;100274.47;;;25.98;66.19
56006;BME280;41888;44.696;10.522;2023-05-22T12:05:00;100271.81;;;25.84;65.78
56006;BME280;41888;44.696;10.522;2023-05-22T12:07:27;100279.06;;;25.67;67.64
56006;BME280;41888;44.696;10.522;2023-05-22T12:09:55;100277.16;;;25.53;66.65
56006;BME280;41888;44.696;10.522;2023-05-22T12:12:23;100265.66;;;25.56;63.99
56006;BME280;41888;44.696;10.522;2023-05-22T12:14:49;100263.56;;;25.98;65.69
56006;BME280;41888;44.696;10.522;2023-05-22T12:17:16;100256.25;;;26.29;65.45
56006;BME280;41888;44.696;10.522;2023-05-22T12:19:43;100255.38;;;26.51;67.92
56006;BME280;41888;44.696;10.522;2023-05-22T12:22:12;100250.72;;;26.52;66.96
56006;BME280;41888;44.696;10.522;2023-05-22T12:24:39;100261.69;;;26.29;63.72
56006;BME280;41888;44.696;10.522;2023-05-22T12:27:10;100253.00;;;25.74;61.91
56006;BME280;41888;44.696;10.522;2023-05-22T12:29:37;100260.13;;;25.48;61.25
56006;BME280;41888;44.696;10.522;2023-05-22T12:32:08;100254.38;;;26.16;62.45
56006;BME280;41888;44.696;10.522;2023-05-22T12:34:47;100257.78;;;26.22;62.93
56006;BME280;41888;44.696;10.522;2023-05-22T12:37:20;100267.78;;;26.04;61.88
56006;BME280;41888;44.696;10.522;2023-05-22T12:39:57;100249.59;;;25.69;63.44
56006;BME280;41888;44.696;10.522;2023-05-22T12:42:25;100261.34;;;26.00;64.44
56006;BME280;41888;44.696;10.522;2023-05-22T12:44:55;100257.50;;;25.79;65.88
56006;BME280;41888;44.696;10.522;2023-05-22T12:47:23;100254.72;;;25.92;64.08
56006;BME280;41888;44.696;10.522;2023-05-22T12:49:50;100249.34;;;25.79;63.35
56006;BME280;41888;44.696;10.522;2023-05-22T12:52:16;100255.91;;;26.00;64.74
56006;BME280;41888;44.696;10.522;2023-05-22T12:54:42;100244.56;;;26.06;64.75